CPX316 Details

Departure: Chicago/Rockford International Airport (KRFD)
Arrival: Ted Stevens Anchorage International Airport (PANC) at N/A
Route: ODI J36 GEP MOT J483 VLN J475 YWV NCA11 REMBY WITTI4
Notes:


Current Weather Information
KRFD 250454Z 06007KT 10SM BKN046 16/12 A3021 RMK AO2 SLP226 T01560122
PANC 250453Z 00000KT 10SM FEW060 SCT200 16/09 A2976 RMK AO2 SLP079 T01560094